Time;durP1;ratioP1;P1;durP2;ratioP2;P2;SDS_P1;SDS_P2;PMS_P1;PMS_P2;Temp;Humidity;BMP_temperature;BMP_pressure;BME280_temperature;BME280_humidity;BME280_pressure;Samples;Min_cycle;Max_cycle;Signal;HPM_P1;HPM_P2
2023/10/28 00:00:26;;;;;;;13.55;4.60;;;;;;;11.19;91.29;99416.91;5079398;28;20137;-69
2023/10/28 00:02:51;;;;;;;13.57;5.00;;;;;;;11.18;91.29;99409.94;5080969;28;20028;-69
2023/10/28 00:05:16;;;;;;;15.23;5.60;;;;;;;11.24;90.54;99425.44;5082174;28;20044;-69
2023/10/28 00:07:42;;;;;;;12.55;5.20;;;;;;;11.24;90.56;99410.41;5082339;28;20051;-69
2023/10/28 00:10:09;;;;;;;8.57;4.60;;;;;;;11.22;90.35;99406.13;5081334;28;20027;-69
2023/10/28 00:12:34;;;;;;;12.68;4.72;;;;;;;11.18;90.73;99415.22;5083930;28;20028;-69
2023/10/28 00:15:00;;;;;;;10.20;4.50;;;;;;;11.16;91.54;99423.28;5084398;28;20035;-68
2023/10/28 00:17:25;;;;;;;9.55;4.20;;;;;;;11.21;90.58;99421.16;5083035;28;20246;-69
2023/10/28 00:19:50;;;;;;;11.55;4.50;;;;;;;11.24;90.58;99420.97;5083311;28;20066;-68
2023/10/28 00:22:19;;;;;;;9.73;3.83;;;;;;;11.23;90.64;99418.41;5085493;28;20033;-68
2023/10/28 00:24:44;;;;;;;12.50;4.25;;;;;;;11.19;90.83;99416.91;5079966;28;20024;-69
2023/10/28 00:27:10;;;;;;;12.10;4.50;;;;;;;11.17;90.90;99414.38;5083318;28;20032;-68
2023/10/28 00:29:36;;;;;;;8.88;4.00;;;;;;;11.17;90.76;99416.19;5086013;28;20034;-69
2023/10/28 00:32:01;;;;;;;12.27;4.22;;;;;;;11.19;91.20;99417.78;5085731;28;20471;-68
2023/10/28 00:34:27;;;;;;;11.63;4.38;;;;;;;11.19;91.33;99417.78;5083219;28;20495;-69
2023/10/28 00:36:52;;;;;;;10.82;4.03;;;;;;;11.19;91.55;99408.97;5082041;28;20028;-69
2023/10/28 00:39:18;;;;;;;11.93;4.38;;;;;;;11.23;91.55;99421.06;5082611;28;20024;-69
2023/10/28 00:41:47;;;;;;;10.70;4.85;;;;;;;11.23;91.65;99413.13;5085866;28;20387;-69
2023/10/28 00:44:13;;;;;;;11.55;4.28;;;;;;;11.26;91.41;99412.94;5085732;28;20558;-69
2023/10/28 00:46:39;;;;;;;10.82;4.20;;;;;;;11.32;91.37;99416.97;5084738;28;20523;-68
2023/10/28 00:49:05;;;;;;;10.07;4.10;;;;;;;11.32;91.11;99419.63;5082887;28;20123;-69
2023/10/28 00:51:31;;;;;;;7.15;3.60;;;;;;;11.31;91.06;99412.63;5083568;28;20024;-68
2023/10/28 00:53:57;;;;;;;11.13;4.00;;;;;;;11.29;91.16;99418.03;5085168;28;20025;-68
2023/10/28 00:56:23;;;;;;;10.40;3.28;;;;;;;11.32;90.89;99423.09;5082550;28;20055;-69
2023/10/28 00:58:48;;;;;;;6.35;3.40;;;;;;;11.34;90.97;99418.56;5083491;28;20031;-69
2023/10/28 01:01:14;;;;;;;11.35;3.83;;;;;;;11.34;91.01;99415.94;5082712;28;20024;-68
2023/10/28 01:03:42;;;;;;;13.07;3.45;;;;;;;11.38;90.87;99413.94;5082155;28;20043;-69
2023/10/28 01:06:12;;;;;;;8.20;3.60;;;;;;;11.38;91.32;99412.13;5074081;28;20037;-69
2023/10/28 01:08:38;;;;;;;10.93;3.53;;;;;;;11.47;90.74;99410.66;5080610;28;20040;-69
2023/10/28 01:11:03;;;;;;;6.15;2.65;;;;;;;11.45;90.96;99413.41;5083132;28;20107;-68
2023/10/28 01:13:29;;;;;;;7.57;2.53;;;;;;;11.49;90.44;99417.53;5081811;28;20032;-68
2023/10/28 01:15:55;;;;;;;5.78;3.10;;;;;;;11.48;90.83;99422.94;5082029;28;20052;-68
2023/10/28 01:18:21;;;;;;;5.70;2.33;;;;;;;11.52;90.33;99410.34;5082318;28;20063;-68
2023/10/28 01:20:46;;;;;;;7.22;3.00;;;;;;;11.56;90.63;99417.13;5084145;28;20056;-68
2023/10/28 01:23:12;;;;;;;8.20;2.72;;;;;;;11.58;89.90;99417.88;5082210;28;20032;-68
2023/10/28 01:25:37;;;;;;;8.00;2.78;;;;;;;11.62;89.80;99412.28;5078591;28;20100;-69
2023/10/28 01:28:03;;;;;;;8.35;2.60;;;;;;;11.63;89.86;99411.34;5084426;28;20059;-69
2023/10/28 01:30:28;;;;;;;4.32;1.70;;;;;;;11.68;89.54;99401.28;5081390;28;20021;-68
2023/10/28 01:32:53;;;;;;;6.45;2.40;;;;;;;11.69;89.30;99402.13;5081913;28;20468;-68
2023/10/28 01:35:19;;;;;;;7.20;2.63;;;;;;;11.66;89.22;99408.50;5083116;28;20452;-68
2023/10/28 01:37:44;;;;;;;6.20;2.00;;;;;;;11.67;89.13;99415.47;5080474;28;20024;-68
2023/10/28 01:40:13;;;;;;;4.45;3.00;;;;;;;11.61;89.13;99412.38;5081922;28;20089;-68
2023/10/28 01:42:40;;;;;;;4.68;2.33;;;;;;;11.62;89.01;99420.22;5083585;28;21442;-69
2023/10/28 01:45:07;;;;;;;3.17;2.17;;;;;;;11.63;89.18;99416.63;5080526;28;20551;-69
2023/10/28 01:47:33;;;;;;;5.05;2.40;;;;;;;11.58;89.35;99418.75;5081591;28;20020;-69
2023/10/28 01:49:58;;;;;;;4.35;2.05;;;;;;;11.60;89.65;99421.28;5081798;28;20016;-68
2023/10/28 01:52:24;;;;;;;5.07;2.55;;;;;;;11.60;89.33;99416.81;5081435;28;20051;-69
2023/10/28 01:54:51;;;;;;;4.20;1.90;;;;;;;11.58;89.30;99413.44;5081441;28;20389;-68
2023/10/28 01:57:17;;;;;;;5.32;1.70;;;;;;;11.60;89.29;99415.97;5081466;28;20024;-68
2023/10/28 01:59:44;;;;;;;6.03;2.05;;;;;;;11.59;89.57;99409.84;5080797;28;20034;-68
2023/10/28 02:02:09;;;;;;;6.72;1.90;;;;;;;11.61;89.46;99417.66;5081026;28;20020;-69
2023/10/28 02:04:35;;;;;;;2.88;1.65;;;;;;;11.27;90.63;99411.13;5080409;28;20067;-68
2023/10/28 02:07:00;;;;;;;5.22;1.42;;;;;;;11.20;91.31;99411.53;5083416;28;20039;-69
2023/10/28 02:09:27;;;;;;;4.70;1.40;;;;;;;11.18;91.82;99408.13;5077643;28;20387;-68
2023/10/28 02:11:53;;;;;;;3.42;1.33;;;;;;;11.16;91.79;99402.09;5083522;28;20123;-69
2023/10/28 02:14:19;;;;;;;4.45;1.80;;;;;;;11.13;91.47;99398.81;5080638;28;20024;-69
2023/10/28 02:16:45;;;;;;;1.83;1.23;;;;;;;11.15;91.71;99407.50;5081353;28;20057;-69
2023/10/28 02:19:10;;;;;;;3.97;1.42;;;;;;;11.12;91.53;99400.59;5081099;28;20388;-68
2023/10/28 02:21:36;;;;;;;5.82;1.60;;;;;;;11.10;91.70;99401.69;5080673;28;20119;-68
2023/10/28 02:24:03;;;;;;;3.88;1.40;;;;;;;11.08;91.63;99404.41;5081433;28;20146;-69
2023/10/28 02:26:29;;;;;;;4.53;1.70;;;;;;;11.07;91.56;99408.00;5081486;28;20032;-69
2023/10/28 02:28:54;;;;;;;2.63;1.40;;;;;;;11.06;92.27;99411.59;5072878;28;20040;-69
2023/10/28 02:31:20;;;;;;;3.15;1.20;;;;;;;11.04;91.79;99404.69;5083133;28;20032;-68
2023/10/28 02:33:45;;;;;;;3.35;1.80;;;;;;;11.03;91.91;99411.78;5083769;28;20056;-68
2023/10/28 02:36:10;;;;;;;2.25;1.38;;;;;;;11.14;91.18;99405.78;5084250;28;20032;-68
2023/10/28 02:38:36;;;;;;;4.22;1.20;;;;;;;11.03;91.55;99414.44;5074697;28;20031;-69
2023/10/28 02:41:01;;;;;;;3.17;1.23;;;;;;;11.02;91.51;99412.75;5083956;28;20032;-69
2023/10/28 02:43:26;;;;;;;5.18;1.30;;;;;;;11.08;91.50;99403.56;5082132;28;20036;-69
2023/10/28 02:45:52;;;;;;;0.98;0.93;;;;;;;10.97;91.10;99407.75;5077374;28;20485;-69
2023/10/28 02:48:17;;;;;;;6.07;1.52;;;;;;;11.02;90.98;99404.81;5075110;28;20472;-68
2023/10/28 02:50:43;;;;;;;1.98;1.00;;;;;;;11.25;90.39;99405.94;5082307;28;20032;-69
2023/10/28 02:53:08;;;;;;;1.92;1.00;;;;;;;10.98;90.98;99411.25;5077478;28;20376;-69
2023/10/28 02:55:37;;;;;;;1.80;1.10;;;;;;;11.00;91.33;99409.34;5080406;28;20052;-68
2023/10/28 02:58:04;;;;;;;1.52;1.00;;;;;;;10.96;91.15;99413.16;5082860;28;20031;-69
2023/10/28 03:00:30;;;;;;;2.28;1.13;;;;;;;10.97;91.28;99412.19;5082995;28;20136;-68
2023/10/28 03:02:57;;;;;;;2.55;0.90;;;;;;;10.92;91.03;99409.84;5080312;28;20478;-69
2023/10/28 03:05:24;;;;;;;2.78;1.08;;;;;;;10.94;90.95;99415.88;5080237;28;20112;-68
2023/10/28 03:07:51;;;;;;;3.30;1.10;;;;;;;10.94;90.46;99431.72;5081099;28;20472;-68
2023/10/28 03:10:17;;;;;;;2.75;1.10;;;;;;;10.99;90.99;99426.16;5083602;28;20150;-68
2023/10/28 03:12:43;;;;;;;2.50;1.30;;;;;;;10.97;91.04;99425.41;5083479;28;20118;-68
2023/10/28 03:15:10;;;;;;;3.17;1.30;;;;;;;10.97;90.88;99428.91;5080333;28;20055;-68
2023/10/28 03:17:36;;;;;;;2.15;1.00;;;;;;;10.95;90.69;99419.34;5081579;28;20032;-69
2023/10/28 03:20:01;;;;;;;2.92;1.45;;;;;;;10.94;90.43;99415.88;5079552;28;20016;-69
2023/10/28 03:22:26;;;;;;;2.40;1.60;;;;;;;10.94;90.48;99420.31;5080010;28;20622;-68
2023/10/28 03:24:51;;;;;;;3.28;1.88;;;;;;;10.91;89.84;99418.72;5083683;28;20026;-69
2023/10/28 03:27:17;;;;;;;2.25;1.42;;;;;;;10.88;89.98;99426.00;5080298;28;20059;-69
2023/10/28 03:29:45;;;;;;;3.63;1.73;;;;;;;10.83;90.35;99410.44;5075796;28;20526;-69
2023/10/28 03:32:10;;;;;;;4.32;1.80;;;;;;;10.79;90.67;99423.94;5081673;28;20475;-69
2023/10/28 03:34:36;;;;;;;3.95;1.90;;;;;;;10.74;90.74;99426.88;5078810;28;20036;-68
2023/10/28 03:37:02;;;;;;;4.82;1.70;;;;;;;10.64;90.62;99425.78;5079172;28;20459;-68
2023/10/28 03:39:27;;;;;;;2.15;1.45;;;;;;;10.61;91.10;99420.66;5073847;28;20119;-70
2023/10/28 03:41:53;;;;;;;3.42;1.33;;;;;;;10.59;90.98;99423.41;5082211;28;20093;-69
2023/10/28 03:44:19;;;;;;;3.42;1.63;;;;;;;10.53;91.23;99421.13;5082251;28;20372;-69
2023/10/28 03:46:45;;;;;;;2.50;1.50;;;;;;;10.53;90.87;99418.50;5081743;28;20510;-69
2023/10/28 03:49:11;;;;;;;2.17;1.42;;;;;;;10.52;90.91;99414.16;5082569;28;20107;-69
2023/10/28 03:51:36;;;;;;;8.63;1.65;;;;;;;10.52;91.47;99411.53;5081484;28;20107;-69
2023/10/28 03:54:02;;;;;;;4.00;1.52;;;;;;;10.55;91.67;99413.97;5075492;28;20039;-69
2023/10/28 03:56:27;;;;;;;5.03;1.90;;;;;;;10.52;91.13;99411.53;5082292;28;20118;-69
2023/10/28 03:58:52;;;;;;;1.88;1.42;;;;;;;10.58;91.43;99415.56;5077705;28;20020;-69
2023/10/28 04:01:18;;;;;;;3.30;1.80;;;;;;;10.66;91.23;99416.78;5079138;28;20035;-69
2023/10/28 04:03:43;;;;;;;4.65;1.55;;;;;;;10.69;91.04;99413.97;5079930;28;20569;-69
2023/10/28 04:06:08;;;;;;;4.00;1.52;;;;;;;10.70;90.46;99418.28;5081848;28;20302;-69
2023/10/28 04:08:34;;;;;;;3.85;1.77;;;;;;;10.73;90.46;99409.34;5081693;28;20023;-69
2023/10/28 04:10:59;;;;;;;3.88;1.48;;;;;;;10.75;90.92;99406.59;5079759;28;20067;-69
2023/10/28 04:13:24;;;;;;;3.92;1.48;;;;;;;10.73;90.18;99411.97;5078550;28;20108;-69
2023/10/28 04:15:50;;;;;;;2.47;1.70;;;;;;;10.79;89.96;99408.94;5078687;28;20081;-70
2023/10/28 04:18:15;;;;;;;6.43;1.70;;;;;;;10.68;90.74;99406.97;5085421;28;20031;-70
2023/10/28 04:20:40;;;;;;;6.07;1.60;;;;;;;10.79;90.16;99408.09;5082047;28;20031;-69
2023/10/28 04:23:06;;;;;;;2.38;1.30;;;;;;;10.72;90.35;99407.59;5079740;28;20514;-69
2023/10/28 04:25:31;;;;;;;2.70;1.40;;;;;;;10.81;90.39;99404.38;5078008;28;20046;-69
2023/10/28 04:27:56;;;;;;;3.03;1.42;;;;;;;10.74;90.33;99403.09;5079642;28;20021;-69
2023/10/28 04:30:22;;;;;;;4.28;2.15;;;;;;;10.75;90.91;99403.94;5080530;28;20111;-69
2023/10/28 04:32:47;;;;;;;4.03;1.80;;;;;;;10.76;90.71;99395.91;5080317;28;20031;-69
2023/10/28 04:35:12;;;;;;;4.93;1.80;;;;;;;10.75;90.80;99396.00;5082113;28;20028;-69
2023/10/28 04:37:38;;;;;;;5.70;1.90;;;;;;;10.83;90.57;99399.03;5080260;28;20028;-70
2023/10/28 04:40:05;;;;;;;3.65;1.70;;;;;;;10.98;89.89;99400.66;5078827;28;20078;-69
2023/10/28 04:42:31;;;;;;;2.28;1.60;;;;;;;10.90;90.30;99401.16;5078781;28;20025;-69
2023/10/28 04:44:56;;;;;;;3.05;1.85;;;;;;;10.91;90.21;99391.41;5082237;28;20027;-69
2023/10/28 04:47:21;;;;;;;7.55;1.65;;;;;;;10.86;90.22;99389.06;5078428;28;20073;-69
2023/10/28 04:49:46;;;;;;;6.82;1.60;;;;;;;10.79;90.67;99389.59;5078344;28;20048;-69
2023/10/28 04:52:12;;;;;;;4.32;1.70;;;;;;;10.89;90.15;99390.69;5078112;28;20392;-69
2023/10/28 04:54:40;;;;;;;3.28;1.40;;;;;;;10.77;90.47;99389.69;5078377;28;20074;-69
2023/10/28 04:57:05;;;;;;;3.90;1.92;;;;;;;10.74;90.80;99392.53;5081144;28;20027;-69
2023/10/28 04:59:30;;;;;;;5.22;1.75;;;;;;;10.83;90.82;99386.63;5086115;28;20028;-68
2023/10/28 05:01:56;;;;;;;2.88;1.52;;;;;;;10.90;90.09;99381.78;5081724;28;20028;-68
2023/10/28 05:04:24;;;;;;;4.15;1.73;;;;;;;10.86;90.66;99382.94;5082461;28;20123;-68
2023/10/28 05:06:49;;;;;;;2.47;1.50;;;;;;;10.76;91.58;99377.41;5086180;28;20445;-68
2023/10/28 05:09:15;;;;;;;3.42;1.70;;;;;;;10.76;91.56;99380.03;5085830;28;20053;-69
2023/10/28 05:11:41;;;;;;;3.47;1.88;;;;;;;10.77;91.02;99372.94;5083811;28;20043;-69
2023/10/28 05:14:09;;;;;;;2.78;1.73;;;;;;;10.92;90.82;99377.28;5082546;28;20499;-69
2023/10/28 05:16:35;;;;;;;4.43;1.85;;;;;;;10.78;90.82;99375.53;5081380;28;20020;-69
2023/10/28 05:19:02;;;;;;;5.57;1.60;;;;;;;10.77;91.61;99375.59;5075944;28;20032;-70
2023/10/28 05:21:28;;;;;;;2.92;1.50;;;;;;;10.78;91.04;99385.25;5082275;28;20430;-69
2023/10/28 05:23:54;;;;;;;5.57;1.60;;;;;;;10.91;90.63;99381.72;5081931;28;20032;-70
2023/10/28 05:26:19;;;;;;;1.92;1.30;;;;;;;10.80;90.80;99378.06;5081495;28;20134;-69
2023/10/28 05:28:46;;;;;;;2.05;1.60;;;;;;;10.79;90.61;99384.28;5081420;28;20482;-70
2023/10/28 05:31:12;;;;;;;2.67;1.50;;;;;;;10.89;90.11;99372.16;5085064;28;20110;-69
2023/10/28 05:33:37;;;;;;;3.70;2.33;;;;;;;10.82;90.33;99379.66;5084864;28;20103;-69
2023/10/28 05:36:05;;;;;;;3.25;1.45;;;;;;;10.84;90.86;99376.91;5083067;28;20475;-69
2023/10/28 05:38:30;;;;;;;4.07;1.50;;;;;;;10.83;90.74;99378.72;5081082;28;20033;-69
2023/10/28 05:40:56;;;;;;;4.00;2.00;;;;;;;10.79;90.97;99376.38;5081371;28;20050;-69
2023/10/28 05:43:21;;;;;;;6.60;1.63;;;;;;;10.80;90.75;99381.53;5081218;28;20487;-69
2023/10/28 05:45:46;;;;;;;3.28;1.40;;;;;;;10.77;90.75;99388.81;5084012;28;20032;-69
2023/10/28 05:48:12;;;;;;;2.90;1.92;;;;;;;10.79;90.32;99382.50;5083383;28;20031;-70
2023/10/28 05:50:37;;;;;;;6.47;1.70;;;;;;;10.77;90.65;99387.03;5084917;28;20058;-69
2023/10/28 05:53:03;;;;;;;5.82;1.95;;;;;;;10.77;90.79;99397.63;5077310;28;20484;-70
2023/10/28 05:55:28;;;;;;;3.38;1.75;;;;;;;10.76;90.93;99397.69;5084489;28;20076;-69
2023/10/28 05:57:54;;;;;;;2.85;1.65;;;;;;;10.79;90.53;99394.88;5084472;28;20422;-69
2023/10/28 06:00:19;;;;;;;4.20;1.40;;;;;;;10.81;90.69;99395.59;5082240;28;20541;-70
2023/10/28 06:02:44;;;;;;;4.55;2.33;;;;;;;10.78;90.84;99398.47;5084324;28;20463;-69
2023/10/28 06:05:10;;;;;;;4.70;1.80;;;;;;;10.80;90.66;99391.28;5084315;28;20043;-69
2023/10/28 06:07:35;;;;;;;4.38;1.48;;;;;;;10.78;90.73;99401.09;5081226;28;20110;-69
2023/10/28 06:10:00;;;;;;;4.22;1.48;;;;;;;10.78;90.93;99406.41;5077622;28;20024;-69
2023/10/28 06:12:26;;;;;;;3.22;1.60;;;;;;;10.78;90.77;99401.94;5083615;28;20024;-69
2023/10/28 06:14:52;;;;;;;5.22;2.08;;;;;;;10.78;91.31;99407.25;5080478;28;20060;-69
2023/10/28 06:17:18;;;;;;;4.55;1.63;;;;;;;10.81;91.58;99406.19;5085586;28;20020;-69
2023/10/28 06:19:43;;;;;;;1.77;1.60;;;;;;;10.82;90.80;99402.59;5074395;28;20028;-69
2023/10/28 06:22:11;;;;;;;4.60;1.75;;;;;;;10.83;91.19;99399.84;5083583;28;20032;-70
2023/10/28 06:24:38;;;;;;;1.98;1.70;;;;;;;10.87;90.81;99411.09;5075194;28;20162;-69
2023/10/28 06:27:04;;;;;;;2.42;1.60;;;;;;;10.87;90.98;99408.44;5071802;28;20024;-69
2023/10/28 06:29:29;;;;;;;5.60;1.85;;;;;;;10.90;90.91;99405.59;5074515;28;20032;-69
2023/10/28 06:31:57;;;;;;;1.70;1.48;;;;;;;10.93;90.87;99418.63;5081860;28;20170;-69
2023/10/28 06:34:24;;;;;;;6.22;1.50;;;;;;;10.97;91.03;99410.41;5083500;28;20360;-69
2023/10/28 06:36:49;;;;;;;3.72;1.60;;;;;;;10.95;91.67;99412.28;5083553;28;20506;-70
2023/10/28 06:39:16;;;;;;;3.65;1.80;;;;;;;11.02;91.96;99419.84;5075513;28;20024;-70
2023/10/28 06:41:41;;;;;;;6.30;1.80;;;;;;;11.05;91.52;99423.13;5083500;28;20031;-70
2023/10/28 06:44:09;;;;;;;3.75;1.70;;;;;;;11.08;92.03;99411.50;5081846;28;20492;-70
2023/10/28 06:46:34;;;;;;;5.00;1.80;;;;;;;11.02;92.79;99418.03;5080391;28;20065;-70
2023/10/28 06:48:59;;;;;;;2.63;1.52;;;;;;;11.06;92.82;99411.59;5075409;28;20493;-69
2023/10/28 06:51:25;;;;;;;6.30;1.80;;;;;;;11.07;92.51;99413.28;5082829;28;20016;-70
2023/10/28 06:53:50;;;;;;;5.13;1.70;;;;;;;11.10;92.83;99407.81;5082968;28;20033;-70
2023/10/28 06:56:16;;;;;;;2.60;1.55;;;;;;;11.12;93.28;99407.69;5081044;28;20028;-70
2023/10/28 06:58:41;;;;;;;8.80;2.08;;;;;;;11.09;93.34;99408.72;5082759;28;20039;-70
2023/10/28 07:01:09;;;;;;;4.18;1.63;;;;;;;11.18;93.15;99404.63;5083325;28;20420;-69
2023/10/28 07:03:35;;;;;;;7.18;1.55;;;;;;;11.15;93.04;99408.34;5080555;28;20040;-70
2023/10/28 07:06:04;;;;;;;3.67;1.75;;;;;;;11.16;92.98;99407.41;5079870;28;20055;-69
2023/10/28 07:08:29;;;;;;;3.85;1.92;;;;;;;11.18;93.41;99405.50;5080651;28;20028;-69
2023/10/28 07:10:55;;;;;;;5.35;2.20;;;;;;;11.19;92.81;99409.84;5083162;28;20069;-70
2023/10/28 07:13:21;;;;;;;5.03;2.05;;;;;;;11.22;93.18;99416.72;5083123;28;20030;-69
2023/10/28 07:15:46;;;;;;;3.78;1.60;;;;;;;11.21;93.11;99409.75;5080600;28;20028;-69
2023/10/28 07:18:13;;;;;;;4.72;1.85;;;;;;;11.28;93.32;99416.31;5078866;28;20581;-69
2023/10/28 07:20:40;;;;;;;3.85;1.80;;;;;;;11.32;93.23;99423.09;5079461;28;20024;-69
2023/10/28 07:23:05;;;;;;;3.63;1.80;;;;;;;11.32;92.55;99417.81;5082866;28;20399;-69
2023/10/28 07:25:30;;;;;;;3.45;1.40;;;;;;;11.41;92.65;99429.59;5083765;28;20031;-69
2023/10/28 07:27:55;;;;;;;9.02;2.00;;;;;;;11.48;92.85;99428.25;5081902;28;20037;-69
2023/10/28 07:30:22;;;;;;;7.13;2.00;;;;;;;11.55;92.98;99428.69;5079715;28;20479;-69
2023/10/28 07:32:47;;;;;;;6.28;1.63;;;;;;;11.57;92.49;99429.44;5082550;28;20115;-70
2023/10/28 07:35:12;;;;;;;5.35;1.70;;;;;;;11.50;92.60;99426.34;5079625;28;20103;-70
2023/10/28 07:37:38;;;;;;;2.00;1.25;;;;;;;11.48;92.57;99430.91;5079741;28;20028;-69
2023/10/28 07:40:03;;;;;;;4.13;1.30;;;;;;;11.51;92.51;99433.31;5082428;28;20035;-69
2023/10/28 07:42:29;;;;;;;4.97;1.73;;;;;;;11.54;91.86;99429.63;5079490;28;20531;-69
2023/10/28 07:44:54;;;;;;;5.20;1.75;;;;;;;11.58;92.51;99434.63;5082550;28;20016;-68
2023/10/28 07:47:20;;;;;;;4.25;1.67;;;;;;;11.66;92.61;99434.97;5080122;28;20511;-68
2023/10/28 07:49:45;;;;;;;3.83;1.75;;;;;;;11.75;92.12;99438.78;5078951;28;20028;-69
2023/10/28 07:52:10;;;;;;;2.88;1.60;;;;;;;11.90;92.17;99440.44;5079817;28;20476;-68
2023/10/28 07:54:36;;;;;;;6.85;1.90;;;;;;;12.01;91.08;99444.97;5082035;28;20031;-68
2023/10/28 07:57:02;;;;;;;4.57;1.67;;;;;;;12.02;90.39;99443.19;5082470;28;20321;-68
2023/10/28 07:59:27;;;;;;;6.97;1.90;;;;;;;12.14;89.66;99443.19;5073468;28;20021;-68
2023/10/28 08:01:53;;;;;;;4.30;1.60;;;;;;;12.25;88.53;99448.59;5078032;28;20043;-69
2023/10/28 08:04:18;;;;;;;4.90;1.75;;;;;;;12.32;89.18;99448.19;5079285;28;20068;-69
2023/10/28 08:06:44;;;;;;;5.35;1.90;;;;;;;12.30;88.95;99453.56;5082605;28;20501;-69
2023/10/28 08:09:09;;;;;;;5.70;1.50;;;;;;;12.34;89.21;99457.69;5075578;28;20024;-69
2023/10/28 08:11:35;;;;;;;4.60;1.50;;;;;;;12.42;89.28;99462.47;5078376;28;20439;-69
2023/10/28 08:14:03;;;;;;;4.15;1.33;;;;;;;12.42;88.29;99465.13;5078436;28;20032;-69
2023/10/28 08:16:28;;;;;;;4.78;1.20;;;;;;;12.52;87.84;99456.41;5078676;28;20024;-68
2023/10/28 08:18:54;;;;;;;6.18;1.63;;;;;;;12.59;87.73;99464.81;5078451;28;20031;-68
2023/10/28 08:21:20;;;;;;;3.42;1.38;;;;;;;12.71;86.89;99471.03;5082222;28;20023;-69
2023/10/28 08:23:46;;;;;;;3.22;1.20;;;;;;;12.74;86.54;99462.88;5081307;28;20552;-69
2023/10/28 08:26:12;;;;;;;8.48;1.30;;;;;;;12.75;86.11;99470.69;5081771;28;20020;-69
2023/10/28 08:28:38;;;;;;;3.72;1.27;;;;;;;12.76;86.24;99466.25;5080184;28;20412;-69
2023/10/28 08:31:10;;;;;;;4.97;1.30;;;;;;;12.73;86.01;99477.94;5080010;28;20103;-69
2023/10/28 08:33:36;;;;;;;4.43;1.10;;;;;;;12.83;86.71;99475.47;5082573;28;20044;-69
2023/10/28 08:36:02;;;;;;;3.85;1.42;;;;;;;12.84;86.18;99474.50;5085043;28;20401;-69
2023/10/28 08:38:28;;;;;;;3.20;1.30;;;;;;;12.84;86.00;99477.16;5086340;28;20024;-69
2023/10/28 08:40:56;;;;;;;3.65;1.10;;;;;;;12.86;86.03;99483.19;5084670;28;20028;-69
2023/10/28 08:43:22;;;;;;;6.15;1.52;;;;;;;12.89;86.32;99490.94;5086846;28;20020;-69
2023/10/28 08:45:48;;;;;;;3.08;1.33;;;;;;;12.97;86.02;99490.41;5082479;28;20016;-69
2023/10/28 08:48:19;;;;;;;5.45;2.00;;;;;;;13.01;85.45;99491.88;5084686;28;20502;-69
2023/10/28 08:50:51;;;;;;;6.28;1.90;;;;;;;13.07;85.58;99485.28;5084713;28;20028;-69
2023/10/28 08:53:17;;;;;;;4.75;1.83;;;;;;;13.13;85.55;99493.63;5088981;28;20024;-69
2023/10/28 08:55:45;;;;;;;4.53;1.50;;;;;;;13.20;84.92;99497.56;5081984;28;20028;-70
2023/10/28 08:58:11;;;;;;;4.30;1.42;;;;;;;13.17;83.60;99491.63;5082289;28;20543;-70
2023/10/28 09:00:38;;;;;;;4.53;1.52;;;;;;;13.12;84.40;99499.06;5080721;28;20032;-69
2023/10/28 09:03:04;;;;;;;5.63;1.75;;;;;;;13.14;84.23;99500.63;5085200;28;20547;-70
2023/10/28 09:05:30;;;;;;;8.10;2.10;;;;;;;13.33;84.11;99497.53;5083429;28;20127;-70
2023/10/28 09:07:55;;;;;;;5.15;1.30;;;;;;;13.50;82.88;99506.91;5081920;28;20063;-69
2023/10/28 09:10:21;;;;;;;9.02;1.50;;;;;;;13.72;81.14;99506.19;5085033;28;20099;-69
2023/10/28 09:12:47;;;;;;;3.58;1.30;;;;;;;13.78;80.91;99503.91;5082112;28;20047;-69
2023/10/28 09:15:12;;;;;;;3.70;1.60;;;;;;;13.89;81.13;99507.56;5081744;28;20476;-70
2023/10/28 09:17:39;;;;;;;5.13;1.58;;;;;;;14.13;79.66;99510.16;5089378;28;20040;-69
2023/10/28 09:20:09;;;;;;;2.92;1.13;;;;;;;14.19;78.49;99521.19;5075847;28;20047;-69
2023/10/28 09:22:38;;;;;;;4.65;1.35;;;;;;;14.23;79.77;99513.84;5082873;28;20055;-69
2023/10/28 09:25:03;;;;;;;2.55;1.10;;;;;;;14.17;79.20;99517.78;5089969;28;20097;-70
2023/10/28 09:27:29;;;;;;;3.17;1.25;;;;;;;14.79;77.19;99517.44;5082371;28;20103;-69
2023/10/28 09:30:11;;;;;;;5.05;1.17;;;;;;;15.59;73.62;99519.03;5083372;28;20024;-70
2023/10/28 09:32:38;;;;;;;6.53;1.50;;;;;;;15.79;72.31;99512.91;5085133;28;20024;-69
2023/10/28 09:35:07;;;;;;;5.40;1.58;;;;;;;15.63;71.88;99523.13;5082505;28;20111;-69
2023/10/28 09:37:34;;;;;;;7.20;1.40;;;;;;;15.37;73.32;99511.06;5081318;28;20066;-69
2023/10/28 09:40:02;;;;;;;5.95;1.48;;;;;;;14.93;73.87;99510.19;5082364;28;20527;-69
2023/10/28 09:42:31;;;;;;;5.00;1.30;;;;;;;14.73;75.89;99512.59;5083597;28;20020;-69
2023/10/28 09:44:58;;;;;;;7.28;1.70;;;;;;;14.63;75.47;99516.09;5080424;28;20539;-69
2023/10/28 09:47:35;;;;;;;4.90;1.60;;;;;;;14.42;76.17;99513.28;5084122;28;20028;-69
2023/10/28 09:50:06;;;;;;;3.75;1.30;;;;;;;14.34;76.54;99520.97;5083622;28;20032;-69
2023/10/28 09:52:33;;;;;;;6.07;1.23;;;;;;;14.17;76.88;99520.44;5074110;28;20058;-69
2023/10/28 09:55:05;;;;;;;5.78;1.40;;;;;;;14.36;76.74;99511.94;5083867;28;20032;-69
2023/10/28 09:57:32;;;;;;;3.38;1.40;;;;;;;14.66;76.58;99515.88;5081077;28;20028;-69
2023/10/28 09:59:59;;;;;;;4.70;1.20;;;;;;;15.68;71.23;99509.47;5078495;28;20044;-69
2023/10/28 10:02:38;;;;;;;3.65;1.10;;;;;;;16.13;68.83;99515.41;5083029;28;20111;-69
2023/10/28 10:05:13;;;;;;;1.90;0.82;;;;;;;15.90;69.94;99504.03;5083925;28;20312;-69
2023/10/28 10:07:39;;;;;;;4.47;1.40;;;;;;;17.10;65.25;99507.94;5081025;28;20073;-69
2023/10/28 10:10:16;;;;;;;3.05;0.82;;;;;;;17.30;62.58;99506.19;5077157;28;20028;-69
2023/10/28 10:12:42;;;;;;;2.80;1.00;;;;;;;17.60;62.16;99507.91;5083458;28;20029;-69
2023/10/28 10:15:09;;;;;;;3.20;1.10;;;;;;;17.59;61.15;99498.22;5083767;28;20141;-68
2023/10/28 10:18:10;;;;;;;5.72;1.30;;;;;;;18.35;61.60;99511.72;5077197;28;20541;-69
2023/10/28 10:20:36;;;;;;;3.67;0.80;;;;;;;19.14;58.51;99516.69;5082381;28;20023;-69
2023/10/28 10:23:03;;;;;;;3.83;1.33;;;;;;;18.97;57.19;99522.81;5080927;28;20153;-68
2023/10/28 10:25:39;;;;;;;5.13;1.42;;;;;;;18.20;59.33;99540.75;5079945;28;20491;-69
2023/10/28 10:28:15;;;;;;;5.82;1.30;;;;;;;17.93;58.48;99525.41;5073049;28;20032;-69
2023/10/28 10:30:42;;;;;;;2.83;1.23;;;;;;;18.30;56.90;99536.22;5074562;28;20476;-69
2023/10/28 10:33:08;;;;;;;7.38;1.75;;;;;;;17.59;59.85;99528.44;5072212;28;20021;-69
2023/10/28 10:35:34;;;;;;;4.53;1.00;;;;;;;16.71;59.85;99531.78;5080423;28;20384;-69
2023/10/28 10:38:08;;;;;;;6.07;1.80;;;;;;;16.15;62.34;99540.16;5082180;28;20025;-69
2023/10/28 10:40:58;;;;;;;7.88;1.10;;;;;;;15.94;63.65;99525.94;5077123;28;20032;-69
2023/10/28 10:43:29;;;;;;;7.05;1.30;;;;;;;16.16;63.41;99524.97;5072910;28;20028;-69
2023/10/28 10:45:55;;;;;;;7.00;1.38;;;;;;;16.24;64.33;99526.03;5083900;28;20024;-69
2023/10/28 10:48:21;;;;;;;4.40;1.27;;;;;;;16.43;64.39;99521.81;5071179;28;20391;-69
2023/10/28 10:50:47;;;;;;;4.88;1.00;;;;;;;16.27;62.74;99520.44;5078557;28;20028;-69
2023/10/28 10:53:12;;;;;;;5.20;1.33;;;;;;;16.00;63.34;99520.94;5074658;28;20064;-68
2023/10/28 10:55:38;;;;;;;5.53;1.20;;;;;;;16.22;63.05;99525.31;5082803;28;20038;-69
2023/10/28 10:58:03;;;;;;;4.15;1.13;;;;;;;17.06;60.57;99510.03;5082425;28;20070;-69
2023/10/28 11:00:29;;;;;;;6.07;1.15;;;;;;;17.13;59.37;99517.53;5071626;28;20461;-69
2023/10/28 11:02:58;;;;;;;4.47;1.23;;;;;;;18.67;57.31;99516.69;5079787;28;20028;-69
2023/10/28 11:05:23;;;;;;;5.45;1.13;;;;;;;19.65;54.77;99511.75;5080381;28;20041;-69
2023/10/28 11:07:50;;;;;;;3.42;1.10;;;;;;;20.23;51.01;99524.66;5082131;28;20024;-69
2023/10/28 11:10:15;;;;;;;4.22;1.40;;;;;;;20.09;51.99;99524.22;5074432;28;20035;-69
2023/10/28 11:12:41;;;;;;;5.45;1.23;;;;;;;20.21;50.65;99514.09;5082054;28;20032;-70
2023/10/28 11:15:08;;;;;;;5.53;1.25;;;;;;;19.76;51.28;99507.00;5082482;28;20024;-70
2023/10/28 11:17:34;;;;;;;4.60;1.40;;;;;;;19.98;50.66;99502.19;5075343;28;20028;-70
2023/10/28 11:20:00;;;;;;;9.23;1.98;;;;;;;19.81;50.90;99501.16;5082040;28;20533;-70
2023/10/28 11:22:26;;;;;;;4.60;1.42;;;;;;;19.98;49.37;99504.84;5081094;28;20031;-70
2023/10/28 11:24:57;;;;;;;4.75;1.58;;;;;;;19.60;52.79;99506.84;5074078;28;20028;-70
2023/10/28 11:27:26;;;;;;;5.70;1.40;;;;;;;18.32;52.69;99514.66;5082527;28;20023;-70